sensor_id;sensor_type;location;lat;lon;timestamp;temperature;humidity
26707;DHT22;14319;49.422;10.934;2022-08-19T00:00:38;19.50;89.60
26707;DHT22;14319;49.422;10.934;2022-08-19T00:02:40;19.50;89.70
26707;DHT22;14319;49.422;10.934;2022-08-19T00:04:41;19.60;89.20
26707;DHT22;14319;49.422;10.934;2022-08-19T00:06:42;19.70;88.80
26707;DHT22;14319;49.422;10.934;2022-08-19T00:08:44;19.70;88.10
26707;DHT22;14319;49.422;10.934;2022-08-19T00:10:45;19.80;87.90
26707;DHT22;14319;49.422;10.934;2022-08-19T00:12:47;19.60;88.20
26707;DHT22;14319;49.422;10.934;2022-08-19T00:14:48;19.60;88.60
26707;DHT22;14319;49.422;10.934;2022-08-19T00:16:49;19.70;88.40
26707;DHT22;14319;49.422;10.934;2022-08-19T00:18:52;19.80;87.80
26707;DHT22;14319;49.422;10.934;2022-08-19T00:20:53;19.70;87.90
26707;DHT22;14319;49.422;10.934;2022-08-19T00:22:54;19.70;88.10
26707;DHT22;14319;49.422;10.934;2022-08-19T00:24:55;19.80;87.70
26707;DHT22;14319;49.422;10.934;2022-08-19T00:26:56;19.60;88.00
26707;DHT22;14319;49.422;10.934;2022-08-19T00:28:57;19.70;88.50
26707;DHT22;14319;49.422;10.934;2022-08-19T00:30:58;19.70;88.00
26707;DHT22;14319;49.422;10.934;2022-08-19T00:32:59;19.70;87.70
26707;DHT22;14319;49.422;10.934;2022-08-19T00:35:00;19.70;87.90
26707;DHT22;14319;49.422;10.934;2022-08-19T00:37:01;19.60;88.30
26707;DHT22;14319;49.422;10.934;2022-08-19T00:39:02;19.40;88.80
26707;DHT22;14319;49.422;10.934;2022-08-19T00:41:04;19.60;88.50
26707;DHT22;14319;49.422;10.934;2022-08-19T00:43:11;19.50;88.60
26707;DHT22;14319;49.422;10.934;2022-08-19T00:45:14;19.70;87.70
26707;DHT22;14319;49.422;10.934;2022-08-19T00:47:17;19.60;87.90
26707;DHT22;14319;49.422;10.934;2022-08-19T00:51:33;19.70;87.40
26707;DHT22;14319;49.422;10.934;2022-08-19T00:53:35;19.80;87.20
26707;DHT22;14319;49.422;10.934;2022-08-19T00:55:36;19.80;87.00
26707;DHT22;14319;49.422;10.934;2022-08-19T00:57:38;19.80;87.00
26707;DHT22;14319;49.422;10.934;2022-08-19T00:59:40;19.70;88.30
26707;DHT22;14319;49.422;10.934;2022-08-19T01:01:42;19.70;87.10
26707;DHT22;14319;49.422;10.934;2022-08-19T01:03:43;19.60;87.60
26707;DHT22;14319;49.422;10.934;2022-08-19T01:05:44;19.70;87.60
26707;DHT22;14319;49.422;10.934;2022-08-19T01:07:45;19.60;87.80
26707;DHT22;14319;49.422;10.934;2022-08-19T01:09:48;19.60;88.40
26707;DHT22;14319;49.422;10.934;2022-08-19T01:11:49;19.70;88.20
26707;DHT22;14319;49.422;10.934;2022-08-19T01:13:50;19.80;87.80
26707;DHT22;14319;49.422;10.934;2022-08-19T01:15:54;19.60;88.30
26707;DHT22;14319;49.422;10.934;2022-08-19T01:17:55;19.70;88.00
26707;DHT22;14319;49.422;10.934;2022-08-19T01:19:57;19.50;89.00
26707;DHT22;14319;49.422;10.934;2022-08-19T01:22:03;19.40;89.40
26707;DHT22;14319;49.422;10.934;2022-08-19T01:24:06;19.30;89.90
26707;DHT22;14319;49.422;10.934;2022-08-19T01:26:06;19.30;90.60
26707;DHT22;14319;49.422;10.934;2022-08-19T01:28:07;19.30;90.30
26707;DHT22;14319;49.422;10.934;2022-08-19T01:30:08;19.40;89.20
26707;DHT22;14319;49.422;10.934;2022-08-19T01:32:10;19.60;88.90
26707;DHT22;14319;49.422;10.934;2022-08-19T01:34:15;19.80;87.90
26707;DHT22;14319;49.422;10.934;2022-08-19T01:36:21;19.90;87.00
26707;DHT22;14319;49.422;10.934;2022-08-19T01:38:24;19.90;86.60
26707;DHT22;14319;49.422;10.934;2022-08-19T01:40:27;19.90;86.60
26707;DHT22;14319;49.422;10.934;2022-08-19T01:42:28;19.80;86.80
26707;DHT22;14319;49.422;10.934;2022-08-19T01:44:32;19.80;86.30
26707;DHT22;14319;49.422;10.934;2022-08-19T01:46:33;19.80;86.30
26707;DHT22;14319;49.422;10.934;2022-08-19T01:48:35;19.70;86.80
26707;DHT22;14319;49.422;10.934;2022-08-19T01:50:36;19.60;86.70
26707;DHT22;14319;49.422;10.934;2022-08-19T01:52:38;19.50;87.10
26707;DHT22;14319;49.422;10.934;2022-08-19T01:54:40;19.60;87.40
26707;DHT22;14319;49.422;10.934;2022-08-19T01:56:41;19.50;88.40
26707;DHT22;14319;49.422;10.934;2022-08-19T01:58:44;19.50;87.80
26707;DHT22;14319;49.422;10.934;2022-08-19T02:00:47;19.50;88.00
26707;DHT22;14319;49.422;10.934;2022-08-19T02:02:48;19.40;88.30
26707;DHT22;14319;49.422;10.934;2022-08-19T02:04:48;19.50;88.30
26707;DHT22;14319;49.422;10.934;2022-08-19T02:06:49;19.50;87.80
26707;DHT22;14319;49.422;10.934;2022-08-19T02:08:50;19.60;87.30
26707;DHT22;14319;49.422;10.934;2022-08-19T02:10:50;19.60;87.40
26707;DHT22;14319;49.422;10.934;2022-08-19T02:12:51;19.80;86.90
26707;DHT22;14319;49.422;10.934;2022-08-19T02:14:52;19.70;87.20
26707;DHT22;14319;49.422;10.934;2022-08-19T02:16:53;19.60;87.30
26707;DHT22;14319;49.422;10.934;2022-08-19T02:18:54;19.70;86.90
26707;DHT22;14319;49.422;10.934;2022-08-19T02:20:54;19.80;85.80
26707;DHT22;14319;49.422;10.934;2022-08-19T02:22:55;19.60;86.50
26707;DHT22;14319;49.422;10.934;2022-08-19T02:24:56;19.60;86.60
26707;DHT22;14319;49.422;10.934;2022-08-19T02:26:57;19.50;87.00
26707;DHT22;14319;49.422;10.934;2022-08-19T02:28:59;19.50;86.90
26707;DHT22;14319;49.422;10.934;2022-08-19T02:31:00;19.70;86.90
26707;DHT22;14319;49.422;10.934;2022-08-19T02:33:02;19.50;86.60
26707;DHT22;14319;49.422;10.934;2022-08-19T02:35:03;19.40;87.20
26707;DHT22;14319;49.422;10.934;2022-08-19T02:37:04;19.40;87.40
26707;DHT22;14319;49.422;10.934;2022-08-19T02:39:05;19.50;87.40
26707;DHT22;14319;49.422;10.934;2022-08-19T02:41:07;19.40;87.50
26707;DHT22;14319;49.422;10.934;2022-08-19T02:43:10;19.60;87.30
26707;DHT22;14319;49.422;10.934;2022-08-19T02:45:13;19.70;86.20
26707;DHT22;14319;49.422;10.934;2022-08-19T02:47:14;19.70;85.60
26707;DHT22;14319;49.422;10.934;2022-08-19T02:49:15;19.70;85.90
26707;DHT22;14319;49.422;10.934;2022-08-19T02:51:17;19.60;85.80
26707;DHT22;14319;49.422;10.934;2022-08-19T02:53:18;19.50;86.40
26707;DHT22;14319;49.422;10.934;2022-08-19T02:55:19;19.40;87.10
26707;DHT22;14319;49.422;10.934;2022-08-19T02:57:21;19.40;87.90
26707;DHT22;14319;49.422;10.934;2022-08-19T02:59:22;19.20;88.20
26707;DHT22;14319;49.422;10.934;2022-08-19T03:01:24;19.20;88.90
26707;DHT22;14319;49.422;10.934;2022-08-19T03:03:24;19.10;89.50
26707;DHT22;14319;49.422;10.934;2022-08-19T03:05:25;19.10;90.00
26707;DHT22;14319;49.422;10.934;2022-08-19T03:07:27;19.20;89.80
26707;DHT22;14319;49.422;10.934;2022-08-19T03:09:28;19.10;89.10
26707;DHT22;14319;49.422;10.934;2022-08-19T03:11:30;19.10;89.30
26707;DHT22;14319;49.422;10.934;2022-08-19T03:13:31;19.10;89.70
26707;DHT22;14319;49.422;10.934;2022-08-19T03:15:33;19.10;90.00
26707;DHT22;14319;49.422;10.934;2022-08-19T03:17:33;19.10;90.20
26707;DHT22;14319;49.422;10.934;2022-08-19T03:19:34;19.00;90.20
26707;DHT22;14319;49.422;10.934;2022-08-19T03:21:35;19.00;90.00
26707;DHT22;14319;49.422;10.934;2022-08-19T03:23:36;19.00;90.60
26707;DHT22;14319;49.422;10.934;2022-08-19T03:25:38;18.90;90.70
26707;DHT22;14319;49.422;10.934;2022-08-19T03:27:40;18.90;91.00
26707;DHT22;14319;49.422;10.934;2022-08-19T03:29:41;18.90;91.20
26707;DHT22;14319;49.422;10.934;2022-08-19T03:31:42;18.90;91.10
26707;DHT22;14319;49.422;10.934;2022-08-19T03:33:43;19.00;91.10
26707;DHT22;14319;49.422;10.934;2022-08-19T03:35:44;19.10;89.80
26707;DHT22;14319;49.422;10.934;2022-08-19T03:37:45;19.30;88.70
26707;DHT22;14319;49.422;10.934;2022-08-19T03:39:46;19.50;87.30
26707;DHT22;14319;49.422;10.934;2022-08-19T03:41:47;19.70;86.50
26707;DHT22;14319;49.422;10.934;2022-08-19T03:43:50;19.80;85.40
26707;DHT22;14319;49.422;10.934;2022-08-19T03:45:59;19.70;85.80
26707;DHT22;14319;49.422;10.934;2022-08-19T03:48:00;19.80;85.10
26707;DHT22;14319;49.422;10.934;2022-08-19T03:50:01;19.70;85.00
26707;DHT22;14319;49.422;10.934;2022-08-19T03:52:02;19.80;85.70
26707;DHT22;14319;49.422;10.934;2022-08-19T03:54:06;19.80;84.20
26707;DHT22;14319;49.422;10.934;2022-08-19T03:56:08;19.80;84.10
26707;DHT22;14319;49.422;10.934;2022-08-19T03:58:09;19.90;83.80
26707;DHT22;14319;49.422;10.934;2022-08-19T04:00:12;19.90;83.70
26707;DHT22;14319;49.422;10.934;2022-08-19T04:02:12;19.80;83.90
26707;DHT22;14319;49.422;10.934;2022-08-19T04:04:13;19.80;84.30
26707;DHT22;14319;49.422;10.934;2022-08-19T04:06:18;19.70;84.60
26707;DHT22;14319;49.422;10.934;2022-08-19T04:08:21;19.60;84.90
26707;DHT22;14319;49.422;10.934;2022-08-19T04:10:22;19.70;84.00
26707;DHT22;14319;49.422;10.934;2022-08-19T04:12:24;19.50;84.40
26707;DHT22;14319;49.422;10.934;2022-08-19T04:14:26;19.50;84.80
26707;DHT22;14319;49.422;10.934;2022-08-19T04:16:28;19.50;84.50
26707;DHT22;14319;49.422;10.934;2022-08-19T04:18:29;19.40;84.30
26707;DHT22;14319;49.422;10.934;2022-08-19T04:20:30;19.40;84.30
26707;DHT22;14319;49.422;10.934;2022-08-19T04:22:31;19.40;84.20
26707;DHT22;14319;49.422;10.934;2022-08-19T04:24:32;19.30;84.30
26707;DHT22;14319;49.422;10.934;2022-08-19T04:26:35;19.40;84.40
26707;DHT22;14319;49.422;10.934;2022-08-19T04:28:36;19.40;84.30
26707;DHT22;14319;49.422;10.934;2022-08-19T04:30:38;19.50;83.90
26707;DHT22;14319;49.422;10.934;2022-08-19T04:32:39;19.60;83.60
26707;DHT22;14319;49.422;10.934;2022-08-19T04:34:39;19.40;84.00
26707;DHT22;14319;49.422;10.934;2022-08-19T04:36:41;19.30;85.40
26707;DHT22;14319;49.422;10.934;2022-08-19T04:38:42;19.10;85.40
26707;DHT22;14319;49.422;10.934;2022-08-19T04:40:43;19.10;85.90
26707;DHT22;14319;49.422;10.934;2022-08-19T04:43:04;19.20;86.20
26707;DHT22;14319;49.422;10.934;2022-08-19T04:45:05;19.30;85.70
26707;DHT22;14319;49.422;10.934;2022-08-19T04:47:06;19.20;86.00
26707;DHT22;14319;49.422;10.934;2022-08-19T04:49:07;19.20;86.20
26707;DHT22;14319;49.422;10.934;2022-08-19T04:51:10;19.10;86.40
26707;DHT22;14319;49.422;10.934;2022-08-19T04:53:11;19.20;86.50
26707;DHT22;14319;49.422;10.934;2022-08-19T04:55:12;19.30;86.30
26707;DHT22;14319;49.422;10.934;2022-08-19T04:57:13;19.30;85.20
26707;DHT22;14319;49.422;10.934;2022-08-19T04:59:13;19.30;85.30
26707;DHT22;14319;49.422;10.934;2022-08-19T05:01:19;19.20;86.00
26707;DHT22;14319;49.422;10.934;2022-08-19T05:03:20;19.10;85.80
26707;DHT22;14319;49.422;10.934;2022-08-19T05:05:21;19.10;86.50
26707;DHT22;14319;49.422;10.934;2022-08-19T05:07:21;19.10;87.20
26707;DHT22;14319;49.422;10.934;2022-08-19T05:09:22;19.10;86.60
26707;DHT22;14319;49.422;10.934;2022-08-19T05:11:32;19.20;86.70
26707;DHT22;14319;49.422;10.934;2022-08-19T05:13:32;19.30;86.80
26707;DHT22;14319;49.422;10.934;2022-08-19T05:15:33;19.40;85.70
26707;DHT22;14319;49.422;10.934;2022-08-19T05:17:35;19.50;85.10
26707;DHT22;14319;49.422;10.934;2022-08-19T05:19:35;19.40;84.70
26707;DHT22;14319;49.422;10.934;2022-08-19T05:21:55;19.60;84.20
26707;DHT22;14319;49.422;10.934;2022-08-19T05:24:15;19.50;84.10
26707;DHT22;14319;49.422;10.934;2022-08-19T05:26:16;19.40;84.20
26707;DHT22;14319;49.422;10.934;2022-08-19T05:28:16;19.30;84.80
26707;DHT22;14319;49.422;10.934;2022-08-19T05:30:17;19.30;85.30
26707;DHT22;14319;49.422;10.934;2022-08-19T05:32:18;19.30;84.80
26707;DHT22;14319;49.422;10.934;2022-08-19T05:34:19;19.20;85.70
26707;DHT22;14319;49.422;10.934;2022-08-19T05:36:23;19.20;86.10
26707;DHT22;14319;49.422;10.934;2022-08-19T05:38:23;19.20;85.60
26707;DHT22;14319;49.422;10.934;2022-08-19T05:40:27;19.30;86.10
26707;DHT22;14319;49.422;10.934;2022-08-19T05:42:27;19.30;86.70
26707;DHT22;14319;49.422;10.934;2022-08-19T05:44:29;19.50;86.60
26707;DHT22;14319;49.422;10.934;2022-08-19T05:46:33;19.60;85.70
26707;DHT22;14319;49.422;10.934;2022-08-19T05:48:35;19.70;84.70
26707;DHT22;14319;49.422;10.934;2022-08-19T05:50:36;19.90;84.90
26707;DHT22;14319;49.422;10.934;2022-08-19T05:52:37;20.00;83.60
26707;DHT22;14319;49.422;10.934;2022-08-19T05:54:39;19.80;84.40
26707;DHT22;14319;49.422;10.934;2022-08-19T05:56:42;19.90;84.50
26707;DHT22;14319;49.422;10.934;2022-08-19T05:58:43;20.00;84.30
26707;DHT22;14319;49.422;10.934;2022-08-19T06:00:45;20.10;83.80
26707;DHT22;14319;49.422;10.934;2022-08-19T06:02:45;20.20;82.40
26707;DHT22;14319;49.422;10.934;2022-08-19T06:04:46;20.20;82.60
26707;DHT22;14319;49.422;10.934;2022-08-19T06:06:47;20.20;82.60
26707;DHT22;14319;49.422;10.934;2022-08-19T06:08:48;20.20;82.80
26707;DHT22;14319;49.422;10.934;2022-08-19T06:10:51;20.10;83.00
26707;DHT22;14319;49.422;10.934;2022-08-19T06:12:51;20.20;82.20
26707;DHT22;14319;49.422;10.934;2022-08-19T06:14:52;20.30;82.10
26707;DHT22;14319;49.422;10.934;2022-08-19T06:16:55;20.20;81.60
26707;DHT22;14319;49.422;10.934;2022-08-19T06:18:55;20.20;81.70
26707;DHT22;14319;49.422;10.934;2022-08-19T06:20:57;20.30;82.40
26707;DHT22;14319;49.422;10.934;2022-08-19T06:22:58;20.10;82.30
26707;DHT22;14319;49.422;10.934;2022-08-19T06:24:59;20.10;82.80
26707;DHT22;14319;49.422;10.934;2022-08-19T06:27:00;20.00;83.20
26707;DHT22;14319;49.422;10.934;2022-08-19T06:29:02;20.10;83.00
26707;DHT22;14319;49.422;10.934;2022-08-19T06:31:05;20.40;82.40
26707;DHT22;14319;49.422;10.934;2022-08-19T06:33:06;20.40;82.30
26707;DHT22;14319;49.422;10.934;2022-08-19T06:35:07;20.20;82.10
26707;DHT22;14319;49.422;10.934;2022-08-19T06:37:08;20.10;84.00
26707;DHT22;14319;49.422;10.934;2022-08-19T06:39:09;19.90;84.30
26707;DHT22;14319;49.422;10.934;2022-08-19T06:41:10;19.80;85.00
26707;DHT22;14319;49.422;10.934;2022-08-19T06:43:11;19.90;85.10
26707;DHT22;14319;49.422;10.934;2022-08-19T06:45:12;20.00;84.80
26707;DHT22;14319;49.422;10.934;2022-08-19T06:47:13;19.90;84.90
26707;DHT22;14319;49.422;10.934;2022-08-19T06:49:14;20.00;84.40
26707;DHT22;14319;49.422;10.934;2022-08-19T06:51:16;19.90;84.50
26707;DHT22;14319;49.422;10.934;2022-08-19T06:53:18;20.00;84.20
26707;DHT22;14319;49.422;10.934;2022-08-19T06:55:19;19.90;84.60
26707;DHT22;14319;49.422;10.934;2022-08-19T06:57:23;19.90;85.20
26707;DHT22;14319;49.422;10.934;2022-08-19T06:59:24;19.90;85.10
26707;DHT22;14319;49.422;10.934;2022-08-19T07:01:28;20.10;84.30
26707;DHT22;14319;49.422;10.934;2022-08-19T07:03:30;20.20;84.60
26707;DHT22;14319;49.422;10.934;2022-08-19T07:05:31;20.30;83.90
26707;DHT22;14319;49.422;10.934;2022-08-19T07:07:32;20.20;84.10
26707;DHT22;14319;49.422;10.934;2022-08-19T07:09:33;20.20;84.20
26707;DHT22;14319;49.422;10.934;2022-08-19T07:11:34;20.30;84.30
26707;DHT22;14319;49.422;10.934;2022-08-19T07:13:36;20.50;83.30
26707;DHT22;14319;49.422;10.934;2022-08-19T07:15:37;20.60;82.40
26707;DHT22;14319;49.422;10.934;2022-08-19T07:17:39;20.80;82.10
26707;DHT22;14319;49.422;10.934;2022-08-19T07:19:40;20.90;81.60
26707;DHT22;14319;49.422;10.934;2022-08-19T07:21:42;20.60;82.80
26707;DHT22;14319;49.422;10.934;2022-08-19T07:23:43;20.60;83.10
26707;DHT22;14319;49.422;10.934;2022-08-19T07:25:44;20.40;83.90
26707;DHT22;14319;49.422;10.934;2022-08-19T07:27:44;20.40;83.80
26707;DHT22;14319;49.422;10.934;2022-08-19T07:29:45;20.40;84.00
26707;DHT22;14319;49.422;10.934;2022-08-19T07:31:46;20.50;83.60
26707;DHT22;14319;49.422;10.934;2022-08-19T07:33:47;20.70;83.00
26707;DHT22;14319;49.422;10.934;2022-08-19T07:35:48;20.50;83.80
26707;DHT22;14319;49.422;10.934;2022-08-19T07:37:49;20.60;83.40
26707;DHT22;14319;49.422;10.934;2022-08-19T07:39:50;20.80;83.20
26707;DHT22;14319;49.422;10.934;2022-08-19T07:41:51;20.50;83.70
26707;DHT22;14319;49.422;10.934;2022-08-19T07:43:52;20.10;84.60
26707;DHT22;14319;49.422;10.934;2022-08-19T07:45:53;20.00;85.40
26707;DHT22;14319;49.422;10.934;2022-08-19T07:47:56;19.90;85.90
26707;DHT22;14319;49.422;10.934;2022-08-19T07:49:57;20.00;85.60
26707;DHT22;14319;49.422;10.934;2022-08-19T07:51:59;20.20;85.10
26707;DHT22;14319;49.422;10.934;2022-08-19T07:54:01;20.40;83.90
26707;DHT22;14319;49.422;10.934;2022-08-19T07:56:03;20.50;83.60
26707;DHT22;14319;49.422;10.934;2022-08-19T07:58:04;20.70;82.10
26707;DHT22;14319;49.422;10.934;2022-08-19T08:00:05;20.60;82.90
26707;DHT22;14319;49.422;10.934;2022-08-19T08:02:12;20.50;83.60
26707;DHT22;14319;49.422;10.934;2022-08-19T08:04:13;20.20;84.60
26707;DHT22;14319;49.422;10.934;2022-08-19T08:06:32;20.10;85.90
26707;DHT22;14319;49.422;10.934;2022-08-19T08:09:11;19.90;86.50
26707;DHT22;14319;49.422;10.934;2022-08-19T08:11:13;19.90;87.00
26707;DHT22;14319;49.422;10.934;2022-08-19T08:13:13;19.90;86.10
26707;DHT22;14319;49.422;10.934;2022-08-19T08:15:14;19.90;86.60
26707;DHT22;14319;49.422;10.934;2022-08-19T08:17:20;19.90;86.20
26707;DHT22;14319;49.422;10.934;2022-08-19T08:19:22;19.80;86.20
26707;DHT22;14319;49.422;10.934;2022-08-19T08:21:26;19.80;85.90
26707;DHT22;14319;49.422;10.934;2022-08-19T08:23:26;19.90;85.60
26707;DHT22;14319;49.422;10.934;2022-08-19T08:25:28;19.90;85.10
26707;DHT22;14319;49.422;10.934;2022-08-19T08:27:30;19.90;85.00
26707;DHT22;14319;49.422;10.934;2022-08-19T08:29:31;19.90;84.90
26707;DHT22;14319;49.422;10.934;2022-08-19T08:31:31;20.00;84.70
26707;DHT22;14319;49.422;10.934;2022-08-19T08:33:34;20.00;83.90
26707;DHT22;14319;49.422;10.934;2022-08-19T08:35:35;20.10;83.60
26707;DHT22;14319;49.422;10.934;2022-08-19T08:37:35;20.30;83.50
26707;DHT22;14319;49.422;10.934;2022-08-19T08:39:37;20.20;82.40
26707;DHT22;14319;49.422;10.934;2022-08-19T08:41:47;20.50;82.90
26707;DHT22;14319;49.422;10.934;2022-08-19T08:43:51;20.50;82.00
26707;DHT22;14319;49.422;10.934;2022-08-19T08:45:55;20.40;81.90
26707;DHT22;14319;49.422;10.934;2022-08-19T08:47:57;20.40;81.90
26707;DHT22;14319;49.422;10.934;2022-08-19T08:50:01;20.60;80.80
26707;DHT22;14319;49.422;10.934;2022-08-19T08:52:04;20.30;81.90
26707;DHT22;14319;49.422;10.934;2022-08-19T08:54:06;20.20;82.40
26707;DHT22;14319;49.422;10.934;2022-08-19T08:56:08;20.30;82.50
26707;DHT22;14319;49.422;10.934;2022-08-19T08:58:27;20.30;82.60
26707;DHT22;14319;49.422;10.934;2022-08-19T09:00:31;20.20;82.60
26707;DHT22;14319;49.422;10.934;2022-08-19T09:02:32;20.20;82.60
26707;DHT22;14319;49.422;10.934;2022-08-19T09:04:34;20.20;83.00
26707;DHT22;14319;49.422;10.934;2022-08-19T09:09:01;20.40;82.10
26707;DHT22;14319;49.422;10.934;2022-08-19T09:11:06;20.60;81.70
26707;DHT22;14319;49.422;10.934;2022-08-19T09:13:14;20.50;80.70
26707;DHT22;14319;49.422;10.934;2022-08-19T09:15:17;20.40;81.80
26707;DHT22;14319;49.422;10.934;2022-08-19T09:17:20;20.50;81.60
26707;DHT22;14319;49.422;10.934;2022-08-19T09:19:28;20.40;81.80
26707;DHT22;14319;49.422;10.934;2022-08-19T09:21:29;20.30;82.00
26707;DHT22;14319;49.422;10.934;2022-08-19T09:23:30;20.30;82.30
26707;DHT22;14319;49.422;10.934;2022-08-19T09:25:30;20.30;82.50
26707;DHT22;14319;49.422;10.934;2022-08-19T09:27:33;20.10;82.60
26707;DHT22;14319;49.422;10.934;2022-08-19T09:29:34;20.00;82.10
26707;DHT22;14319;49.422;10.934;2022-08-19T09:31:35;20.00;82.60
26707;DHT22;14319;49.422;10.934;2022-08-19T09:33:35;20.10;82.60
26707;DHT22;14319;49.422;10.934;2022-08-19T09:35:36;20.10;82.30
26707;DHT22;14319;49.422;10.934;2022-08-19T09:37:36;20.20;81.90
26707;DHT22;14319;49.422;10.934;2022-08-19T09:39:38;20.30;82.00
26707;DHT22;14319;49.422;10.934;2022-08-19T09:41:39;20.20;81.90
26707;DHT22;14319;49.422;10.934;2022-08-19T09:43:40;20.20;82.10
26707;DHT22;14319;49.422;10.934;2022-08-19T09:45:42;20.10;82.70
26707;DHT22;14319;49.422;10.934;2022-08-19T09:47:43;20.10;82.90
26707;DHT22;14319;49.422;10.934;2022-08-19T09:49:44;20.20;83.10
26707;DHT22;14319;49.422;10.934;2022-08-19T09:51:44;20.20;83.20
26707;DHT22;14319;49.422;10.934;2022-08-19T09:53:45;20.50;82.50
26707;DHT22;14319;49.422;10.934;2022-08-19T09:55:46;20.50;82.40
26707;DHT22;14319;49.422;10.934;2022-08-19T09:57:46;20.50;82.10
26707;DHT22;14319;49.422;10.934;2022-08-19T09:59:47;20.30;82.30
26707;DHT22;14319;49.422;10.934;2022-08-19T10:01:48;20.30;82.50
26707;DHT22;14319;49.422;10.934;2022-08-19T10:03:50;20.10;83.00
26707;DHT22;14319;49.422;10.934;2022-08-19T10:05:52;20.30;83.30
26707;DHT22;14319;49.422;10.934;2022-08-19T10:07:53;20.20;82.90
26707;DHT22;14319;49.422;10.934;2022-08-19T10:09:54;20.20;82.70
26707;DHT22;14319;49.422;10.934;2022-08-19T10:11:55;20.20;83.40
26707;DHT22;14319;49.422;10.934;2022-08-19T10:13:56;20.30;83.20
26707;DHT22;14319;49.422;10.934;2022-08-19T10:16:02;20.30;82.50
26707;DHT22;14319;49.422;10.934;2022-08-19T10:18:03;20.30;83.30
26707;DHT22;14319;49.422;10.934;2022-08-19T10:20:04;20.30;82.40
26707;DHT22;14319;49.422;10.934;2022-08-19T10:22:05;20.30;82.80
26707;DHT22;14319;49.422;10.934;2022-08-19T10:24:07;20.30;82.40
26707;DHT22;14319;49.422;10.934;2022-08-19T10:26:08;20.30;82.80
26707;DHT22;14319;49.422;10.934;2022-08-19T10:28:09;20.30;82.90
26707;DHT22;14319;49.422;10.934;2022-08-19T10:30:12;20.30;82.90
26707;DHT22;14319;49.422;10.934;2022-08-19T10:32:13;20.20;82.40
26707;DHT22;14319;49.422;10.934;2022-08-19T10:34:13;20.10;82.80
26707;DHT22;14319;49.422;10.934;2022-08-19T10:36:18;20.10;83.10
26707;DHT22;14319;49.422;10.934;2022-08-19T10:38:19;20.10;83.10
26707;DHT22;14319;49.422;10.934;2022-08-19T10:40:21;20.30;82.90
26707;DHT22;14319;49.422;10.934;2022-08-19T10:42:22;20.30;82.90
26707;DHT22;14319;49.422;10.934;2022-08-19T10:44:23;20.20;82.90
26707;DHT22;14319;49.422;10.934;2022-08-19T10:46:25;20.20;83.00
26707;DHT22;14319;49.422;10.934;2022-08-19T10:48:26;20.20;82.90
26707;DHT22;14319;49.422;10.934;2022-08-19T10:50:27;20.20;83.10
26707;DHT22;14319;49.422;10.934;2022-08-19T10:52:47;20.20;83.50
26707;DHT22;14319;49.422;10.934;2022-08-19T10:54:48;20.20;83.50
26707;DHT22;14319;49.422;10.934;2022-08-19T10:57:08;20.20;83.20
26707;DHT22;14319;49.422;10.934;2022-08-19T10:59:08;20.30;83.30
26707;DHT22;14319;49.422;10.934;2022-08-19T11:01:10;20.20;83.20
26707;DHT22;14319;49.422;10.934;2022-08-19T11:03:10;20.20;82.90
26707;DHT22;14319;49.422;10.934;2022-08-19T11:05:11;20.10;82.80
26707;DHT22;14319;49.422;10.934;2022-08-19T11:07:12;20.20;84.10
26707;DHT22;14319;49.422;10.934;2022-08-19T11:09:14;20.20;83.00
26707;DHT22;14319;49.422;10.934;2022-08-19T11:11:15;20.30;82.90
26707;DHT22;14319;49.422;10.934;2022-08-19T11:13:16;20.30;82.90
26707;DHT22;14319;49.422;10.934;2022-08-19T11:15:17;20.20;82.90
26707;DHT22;14319;49.422;10.934;2022-08-19T11:17:18;20.10;83.00
26707;DHT22;14319;49.422;10.934;2022-08-19T11:19:18;20.10;83.50
26707;DHT22;14319;49.422;10.934;2022-08-19T11:21:21;20.10;83.50
26707;DHT22;14319;49.422;10.934;2022-08-19T11:23:22;20.00;84.60
26707;DHT22;14319;49.422;10.934;2022-08-19T11:25:22;20.10;83.90
26707;DHT22;14319;49.422;10.934;2022-08-19T11:27:23;20.10;83.80
26707;DHT22;14319;49.422;10.934;2022-08-19T11:29:24;20.10;83.80
26707;DHT22;14319;49.422;10.934;2022-08-19T11:31:28;20.10;83.90
26707;DHT22;14319;49.422;10.934;2022-08-19T11:33:31;20.10;83.90
26707;DHT22;14319;49.422;10.934;2022-08-19T11:35:33;20.10;83.90
26707;DHT22;14319;49.422;10.934;2022-08-19T11:37:34;20.10;84.10
26707;DHT22;14319;49.422;10.934;2022-08-19T11:39:37;20.10;84.30
26707;DHT22;14319;49.422;10.934;2022-08-19T11:41:39;19.90;87.60
26707;DHT22;14319;49.422;10.934;2022-08-19T11:43:40;19.80;88.50
26707;DHT22;14319;49.422;10.934;2022-08-19T11:45:41;19.80;86.80
26707;DHT22;14319;49.422;10.934;2022-08-19T11:47:41;19.90;86.10
26707;DHT22;14319;49.422;10.934;2022-08-19T11:49:42;20.00;85.60
26707;DHT22;14319;49.422;10.934;2022-08-19T11:51:43;20.10;85.30
26707;DHT22;14319;49.422;10.934;2022-08-19T11:53:43;20.20;85.20
26707;DHT22;14319;49.422;10.934;2022-08-19T11:55:44;20.20;85.30
26707;DHT22;14319;49.422;10.934;2022-08-19T11:57:45;20.30;85.00
26707;DHT22;14319;49.422;10.934;2022-08-19T11:59:47;20.40;84.20
26707;DHT22;14319;49.422;10.934;2022-08-19T12:01:48;20.40;84.50
26707;DHT22;14319;49.422;10.934;2022-08-19T12:03:50;20.50;84.10
26707;DHT22;14319;49.422;10.934;2022-08-19T12:05:50;20.50;83.50
26707;DHT22;14319;49.422;10.934;2022-08-19T12:07:51;20.40;86.30
26707;DHT22;14319;49.422;10.934;2022-08-19T12:09:52;20.40;86.50
26707;DHT22;14319;49.422;10.934;2022-08-19T12:11:52;20.30;86.20
26707;DHT22;14319;49.422;10.934;2022-08-19T12:13:53;20.40;87.50
26707;DHT22;14319;49.422;10.934;2022-08-19T12:15:54;20.40;86.60
26707;DHT22;14319;49.422;10.934;2022-08-19T12:17:56;20.30;86.70
26707;DHT22;14319;49.422;10.934;2022-08-19T12:19:57;20.30;87.00
26707;DHT22;14319;49.422;10.934;2022-08-19T12:22:01;20.40;86.60
26707;DHT22;14319;49.422;10.934;2022-08-19T12:24:03;20.30;87.30
26707;DHT22;14319;49.422;10.934;2022-08-19T12:26:04;20.10;87.20
26707;DHT22;14319;49.422;10.934;2022-08-19T12:28:05;20.10;88.10
26707;DHT22;14319;49.422;10.934;2022-08-19T12:30:08;20.00;89.00
26707;DHT22;14319;49.422;10.934;2022-08-19T12:32:08;19.80;89.70
26707;DHT22;14319;49.422;10.934;2022-08-19T12:34:09;19.70;91.50
26707;DHT22;14319;49.422;10.934;2022-08-19T12:36:11;19.20;99.90
26707;DHT22;14319;49.422;10.934;2022-08-19T12:38:12;18.60;99.90
26707;DHT22;14319;49.422;10.934;2022-08-19T12:40:15;18.50;99.90
26707;DHT22;14319;49.422;10.934;2022-08-19T12:42:15;18.30;99.90